Time;durP1;ratioP1;P1;durP2;ratioP2;P2;SDS_P1;SDS_P2;PMS_P1;PMS_P2;Temp;Humidity;BMP_temperature;BMP_pressure;BME280_temperature;BME280_humidity;BME280_pressure;Samples;Min_cycle;Max_cycle;Signal;HPM_P1;HPM_P2
2023/10/12 00:02:00;;;;;;;24.45;7.70;;;19.50;92.10;;;;;;5081828;28;20481;-53
2023/10/12 00:04:43;;;;;;;22.13;8.15;;;19.40;92.10;;;;;;5065666;28;20078;-53
2023/10/12 00:09:37;;;;;;;30.10;8.15;;;19.40;92.10;;;;;;5082494;28;20036;-53
2023/10/12 00:12:07;;;;;;;28.13;9.02;;;19.40;92.10;;;;;;5066044;28;20032;-53
2023/10/12 00:14:33;;;;;;;24.75;8.30;;;19.40;92.10;;;;;;5049123;28;20078;-53
2023/10/12 00:16:59;;;;;;;22.73;8.07;;;19.40;92.00;;;;;;5065962;28;20517;-53
2023/10/12 00:19:25;;;;;;;17.95;7.93;;;19.30;92.00;;;;;;5065650;28;20044;-53
2023/10/12 00:22:01;;;;;;;19.90;7.75;;;19.30;92.00;;;;;;5067061;28;20029;-53
2023/10/12 00:24:27;;;;;;;16.40;7.20;;;19.30;92.00;;;;;;5081453;28;20052;-53
2023/10/12 00:26:53;;;;;;;22.30;7.82;;;19.30;92.10;;;;;;5064351;28;20041;-53
2023/10/12 00:29:19;;;;;;;22.88;7.65;;;19.20;92.10;;;;;;5066955;28;20056;-52
2023/10/12 00:31:47;;;;;;;19.48;8.10;;;19.20;92.10;;;;;;5066987;28;20040;-53
2023/10/12 00:34:14;;;;;;;23.85;8.43;;;19.20;92.10;;;;;;5081702;28;20029;-53
2023/10/12 00:36:41;;;;;;;20.02;8.25;;;19.20;92.00;;;;;;5066913;28;20108;-52
2023/10/12 00:39:10;;;;;;;21.45;8.43;;;19.20;92.00;;;;;;5066569;28;20032;-53
2023/10/12 00:41:45;;;;;;;27.45;9.05;;;19.20;92.00;;;;;;5081700;28;20029;-53
2023/10/12 00:44:12;;;;;;;19.17;7.93;;;19.20;92.00;;;;;;5081383;28;20029;-53
2023/10/12 00:49:18;;;;;;;19.27;8.18;;;19.10;92.00;;;;;;5081894;28;20029;-53
2023/10/12 00:51:52;;;;;;;18.10;7.88;;;19.10;92.10;;;;;;5048499;28;20052;-53
2023/10/12 00:54:41;;;;;;;18.25;7.43;;;19.10;92.10;;;;;;5081819;28;20033;-53
2023/10/12 00:57:08;;;;;;;17.88;7.82;;;19.10;92.10;;;;;;5079748;28;20033;-53
2023/10/12 00:59:34;;;;;;;22.50;8.10;;;19.10;92.20;;;;;;5081601;28;20029;-53
2023/10/12 01:02:08;;;;;;;19.90;7.20;;;19.00;92.20;;;;;;5081763;28;20084;-53
2023/10/12 01:04:38;;;;;;;18.65;6.85;;;19.00;92.10;;;;;;5081179;28;20056;-53
2023/10/12 01:07:06;;;;;;;23.10;8.07;;;19.00;92.20;;;;;;5066344;28;20033;-53
2023/10/12 01:09:45;;;;;;;16.92;8.15;;;18.90;92.30;;;;;;5081523;28;20489;-53
2023/10/12 01:12:14;;;;;;;19.67;7.38;;;18.90;92.30;;;;;;5080307;28;20025;-52
2023/10/12 01:14:43;;;;;;;11.43;6.55;;;18.90;92.30;;;;;;5048086;28;20029;-53
2023/10/12 01:17:12;;;;;;;15.80;6.88;;;18.90;92.40;;;;;;5081382;28;20362;-53
2023/10/12 01:19:48;;;;;;;15.00;6.57;;;18.90;92.40;;;;;;5065964;28;20036;-53
2023/10/12 01:22:25;;;;;;;19.27;7.83;;;18.90;92.40;;;;;;5080653;28;20103;-52
2023/10/12 01:27:20;;;;;;;19.90;6.63;;;18.80;92.40;;;;;;5081557;28;20036;-53
2023/10/12 01:29:46;;;;;;;20.00;6.55;;;18.80;92.30;;;;;;5064880;28;20484;-53
2023/10/12 01:34:37;;;;;;;17.48;6.55;;;18.80;92.30;;;;;;5064793;28;20146;-53
2023/10/12 01:37:09;;;;;;;14.50;5.97;;;18.70;92.40;;;;;;5065814;28;20033;-53
2023/10/12 01:39:39;;;;;;;15.60;6.30;;;18.70;92.40;;;;;;5069592;28;20086;-53
2023/10/12 01:42:06;;;;;;;12.32;6.72;;;18.70;92.30;;;;;;5071039;28;20044;-53
2023/10/12 01:44:32;;;;;;;23.65;7.65;;;18.70;92.50;;;;;;5085949;28;20048;-53
2023/10/12 01:46:58;;;;;;;21.40;7.68;;;18.70;92.20;;;;;;5086159;28;20104;-53
2023/10/12 01:49:23;;;;;;;17.70;6.88;;;18.70;92.30;;;;;;5086440;28;20032;-53
2023/10/12 01:51:49;;;;;;;22.02;7.75;;;18.70;92.30;;;;;;5070500;28;20025;-53
2023/10/12 01:54:24;;;;;;;18.33;8.05;;;18.70;92.30;;;;;;5071365;28;20063;-52
2023/10/12 01:56:53;;;;;;;17.83;8.95;;;18.60;92.30;;;;;;5085953;28;20033;-53
2023/10/12 01:59:25;;;;;;;17.48;8.25;;;18.60;92.30;;;;;;5071076;28;20033;-53
2023/10/12 02:01:54;;;;;;;18.27;8.05;;;18.60;92.30;;;;;;5068880;28;20028;-52
2023/10/12 02:04:25;;;;;;;14.15;7.40;;;18.60;92.30;;;;;;5069700;28;20021;-53
2023/10/12 02:06:51;;;;;;;15.00;7.25;;;18.60;92.30;;;;;;5051814;28;20025;-53
2023/10/12 02:09:22;;;;;;;13.40;7.13;;;18.60;92.30;;;;;;5069626;28;20021;-53
2023/10/12 02:11:53;;;;;;;13.27;6.32;;;18.50;92.30;;;;;;5069759;28;20033;-53
2023/10/12 02:14:32;;;;;;;13.13;7.10;;;18.50;92.30;;;;;;5069411;28;20028;-53
2023/10/12 02:17:02;;;;;;;17.27;7.18;;;18.50;92.30;;;;;;5083337;28;20029;-53
2023/10/12 02:22:06;;;;;;;11.85;6.75;;;18.50;92.30;;;;;;5069427;28;20021;-53
2023/10/12 02:24:35;;;;;;;16.15;6.55;;;18.40;92.30;;;;;;5084527;28;20039;-53
2023/10/12 02:27:01;;;;;;;12.15;6.05;;;18.40;92.30;;;;;;5067447;28;20029;-53
2023/10/12 02:29:29;;;;;;;10.90;6.28;;;18.40;92.30;;;;;;5084769;28;20497;-52
2023/10/12 02:31:58;;;;;;;14.98;6.88;;;18.40;92.30;;;;;;5084318;28;20021;-53
2023/10/12 02:34:28;;;;;;;15.82;6.70;;;18.40;92.30;;;;;;5067936;28;20075;-53
2023/10/12 02:39:43;;;;;;;13.40;6.30;;;18.30;92.30;;;;;;5082932;28;20036;-53
2023/10/12 02:42:17;;;;;;;;;;;18.30;92.30;;;;;;5051437;28;20393;-53
2023/10/12 02:47:22;;;;;;;10.48;5.57;;;18.30;92.30;;;;;;5084086;28;20075;-53
2023/10/12 02:50:14;;;;;;;13.45;6.10;;;18.20;92.30;;;;;;5066341;28;20041;-52
2023/10/12 02:52:43;;;;;;;13.10;6.43;;;18.30;92.30;;;;;;5082256;28;20037;-53
2023/10/12 02:57:54;;;;;;;12.80;6.13;;;18.20;92.30;;;;;;5082813;28;20039;-53
2023/10/12 03:00:36;;;;;;;8.60;6.00;;;18.10;92.30;;;;;;5067334;28;20033;-52
2023/10/12 03:03:09;;;;;;;15.13;5.55;;;18.20;92.30;;;;;;5082922;28;20029;-53
2023/10/12 03:05:46;;;;;;;9.57;5.53;;;18.10;92.30;;;;;;5083048;28;20021;-53
2023/10/12 03:08:17;;;;;;;11.82;6.13;;;18.10;92.30;;;;;;5068301;28;20035;-53
2023/10/12 03:11:31;;;;;;;9.57;6.32;;;18.10;92.30;;;;;;5068541;28;20073;-53
2023/10/12 03:13:34;;;;;;;16.35;6.78;;;18.10;92.30;;;;;;5063866;28;20124;-53
2023/10/12 03:18:36;;;;;;;13.23;6.38;;;18.10;92.40;;;;;;5083101;28;20029;-53
2023/10/12 03:21:04;;;;;;;10.45;6.20;;;18.00;92.40;;;;;;5068507;28;20507;-52
2023/10/12 03:23:33;;;;;;;14.68;6.05;;;18.00;92.40;;;;;;5068425;28;20056;-53
2023/10/12 03:26:04;;;;;;;15.07;6.20;;;18.00;92.40;;;;;;5067020;28;20044;-53
2023/10/12 03:28:30;;;;;;;12.50;6.63;;;18.00;92.30;;;;;;5083172;28;20086;-52
2023/10/12 03:31:15;;;;;;;11.93;5.90;;;18.00;92.30;;;;;;5083462;28;20481;-53
2023/10/12 03:33:46;;;;;;;11.10;6.18;;;18.00;92.30;;;;;;5081344;28;20029;-53
2023/10/12 03:36:23;;;;;;;8.18;5.78;;;18.00;92.30;;;;;;5066825;28;20037;-53
2023/10/12 03:44:49;;;;;;;9.80;5.32;;;17.90;92.40;;;;;;5067903;28;20036;-53
2023/10/12 03:47:29;;;;;;;12.13;5.75;;;17.90;92.40;;;;;;5080768;28;20551;-53
2023/10/12 03:49:57;;;;;;;9.45;5.57;;;17.90;92.40;;;;;;5066462;28;20094;-53
2023/10/12 03:52:34;;;;;;;12.45;5.63;;;17.90;92.40;;;;;;5067655;28;20048;-52
2023/10/12 04:02:39;;;;;;;9.73;5.32;;;17.80;92.40;;;;;;5067205;28;20427;-52
2023/10/12 04:05:20;;;;;;;12.07;6.03;;;17.80;92.40;;;;;;5081756;28;20457;-53
2023/10/12 04:13:09;;;;;;;10.15;4.85;;;17.70;92.40;;;;;;5079888;28;20063;-52
2023/10/12 04:16:09;;;;;;;11.15;5.47;;;17.70;92.40;;;;;;5082568;28;20025;-52
2023/10/12 04:18:28;;;;;;;9.52;5.10;;;17.70;92.40;;;;;;5067623;28;20086;-52
2023/10/12 04:20:56;;;;;;;9.48;5.38;;;17.70;92.40;;;;;;5081903;28;20051;-52
2023/10/12 04:23:46;;;;;;;7.88;4.72;;;17.60;92.40;;;;;;5066944;28;20424;-53
2023/10/12 04:28:40;;;;;;;10.27;5.40;;;17.60;92.50;;;;;;5066957;28;20052;-53
2023/10/12 04:33:55;;;;;;;21.08;6.60;;;17.60;92.50;;;;;;5067042;28;20033;-53
2023/10/12 04:36:25;;;;;;;37.88;8.93;;;17.60;92.50;;;;;;5065784;28;20037;-53
2023/10/12 04:38:58;;;;;;;84.10;12.77;;;17.60;92.50;;;;;;5081331;28;20051;-53
2023/10/12 04:41:25;;;;;;;71.40;11.30;;;17.60;92.50;;;;;;5065600;28;20047;-52
2023/10/12 04:43:54;;;;;;;61.47;12.20;;;17.50;92.50;;;;;;5048591;28;20485;-53
2023/10/12 04:49:39;;;;;;;68.10;11.70;;;17.50;92.60;;;;;;5081898;28;20048;-53
2023/10/12 04:51:51;;;;;;;53.65;10.55;;;17.50;92.60;;;;;;5064326;28;20040;-52
2023/10/12 04:54:23;;;;;;;49.30;10.18;;;17.40;92.60;;;;;;5065262;28;20028;-52
2023/10/12 04:59:42;;;;;;;54.15;10.63;;;17.40;92.60;;;;;;5066436;28;20385;-52
2023/10/12 05:09:52;;;;;;;58.85;10.95;;;17.40;92.60;;;;;;5028630;28;20101;-53
2023/10/12 05:12:25;;;;;;;61.40;11.20;;;17.40;92.60;;;;;;5064780;28;20496;-53
2023/10/12 05:15:00;;;;;;;69.53;10.93;;;17.40;92.70;;;;;;5064769;28;20032;-52
2023/10/12 05:17:27;;;;;;;50.17;11.25;;;17.40;92.70;;;;;;5063992;28;20021;-53
2023/10/12 05:19:53;;;;;;;59.13;10.50;;;17.40;92.70;;;;;;5075492;28;20071;-52
2023/10/12 05:22:22;;;;;;;48.25;10.18;;;17.30;92.60;;;;;;5047600;28;20029;-52
2023/10/12 05:24:47;;;;;;;52.58;9.82;;;17.40;92.60;;;;;;5052489;28;20028;-53
2023/10/12 05:27:23;;;;;;;47.15;9.50;;;17.30;92.60;;;;;;5048088;28;20086;-52
2023/10/12 05:29:52;;;;;;;;;;;17.30;92.70;;;;;;5048494;28;20029;-52
2023/10/12 05:37:38;;;;;;;35.50;8.40;;;17.30;92.70;;;;;;5065953;28;20029;-53
2023/10/12 05:39:55;;;;;;;48.47;9.70;;;17.30;92.70;;;;;;5064552;28;20045;-53
2023/10/12 05:42:24;;;;;;;35.85;8.20;;;17.30;92.70;;;;;;5063338;28;20032;-52
2023/10/12 05:44:50;;;;;;;42.92;9.02;;;17.30;92.80;;;;;;5064991;28;20025;-53
2023/10/12 05:47:18;;;;;;;31.30;8.63;;;17.30;92.80;;;;;;5048760;28;20089;-52
2023/10/12 05:49:45;;;;;;;33.55;8.07;;;17.20;92.90;;;;;;5053405;28;20051;-53
2023/10/12 05:52:11;;;;;;;46.33;9.00;;;17.20;92.90;;;;;;5065721;28;20029;-53
2023/10/12 05:54:39;;;;;;;53.17;9.85;;;17.20;92.90;;;;;;5064070;28;20509;-53
2023/10/12 05:57:19;;;;;;;38.53;9.13;;;17.20;92.90;;;;;;5064505;28;20115;-53
2023/10/12 05:59:45;;;;;;;39.10;8.85;;;17.20;92.90;;;;;;5064606;28;20037;-53
2023/10/12 06:02:11;;;;;;;36.70;8.70;;;17.00;92.90;;;;;;5065765;28;20497;-52
2023/10/12 06:04:37;;;;;;;35.88;8.57;;;17.20;93.00;;;;;;5064648;28;20036;-52
2023/10/12 06:07:02;;;;;;;31.85;7.78;;;17.20;93.00;;;;;;5047917;28;20029;-52
2023/10/12 06:09:35;;;;;;;52.65;12.35;;;17.10;93.00;;;;;;5066037;28;20033;-52
2023/10/12 06:12:06;;;;;;;37.30;9.15;;;17.10;93.10;;;;;;5046434;28;20540;-53
2023/10/12 06:14:35;;;;;;;44.63;9.20;;;17.10;93.10;;;;;;5023478;28;20477;-52
2023/10/12 06:17:02;;;;;;;41.25;9.68;;;17.10;93.20;;;;;;5062204;28;20405;-52
2023/10/12 06:19:34;;;;;;;33.75;8.82;;;17.00;93.20;;;;;;5064236;28;20112;-53
2023/10/12 06:22:19;;;;;;;27.83;7.85;;;17.00;93.40;;;;;;5063886;28;20025;-53
2023/10/12 06:24:49;;;;;;;35.72;9.20;;;17.00;93.50;;;;;;5067225;28;20089;-52
2023/10/12 06:29:46;;;;;;;26.08;8.88;;;16.90;93.50;;;;;;5068117;28;20492;-52
2023/10/12 06:32:28;;;;;;;32.10;9.63;;;16.90;93.50;;;;;;5069068;28;20036;-52
2023/10/12 06:35:27;;;;;;;34.08;8.88;;;16.90;93.60;;;;;;5068572;28;20108;-52
2023/10/12 06:45:52;;;;;;;33.70;8.88;;;16.90;93.60;;;;;;5051615;28;20262;-53
2023/10/12 06:51:13;;;;;;;24.95;8.07;;;16.80;93.60;;;;;;5068540;28;20089;-52
2023/10/12 06:53:40;;;;;;;;;;;16.80;93.70;;;;;;5051121;28;20167;-53
2023/10/12 06:59:08;;;;;;;28.48;8.52;;;16.80;93.80;;;;;;5047337;28;20020;-53
2023/10/12 07:04:37;;;;;;;31.15;10.13;;;16.80;93.80;;;;;;5059020;28;20021;-52
2023/10/12 07:07:11;;;;;;;46.47;12.00;;;16.80;93.90;;;;;;5056287;28;20040;-53
2023/10/12 07:09:39;;;;;;;41.75;11.95;;;16.80;94.00;;;;;;5064626;28;20045;-52
2023/10/12 07:12:12;;;;;;;50.20;12.35;;;16.80;94.10;;;;;;5068150;28;20029;-52
2023/10/12 07:14:53;;;;;;;39.20;10.77;;;16.80;94.10;;;;;;5068058;28;20025;-52
2023/10/12 07:17:18;;;;;;;38.20;10.82;;;16.80;94.00;;;;;;5053284;28;20029;-52
2023/10/12 07:19:49;;;;;;;26.88;9.05;;;16.80;94.00;;;;;;5062621;28;20197;-53
2023/10/12 07:22:15;;;;;;;32.70;10.32;;;16.80;94.10;;;;;;5076909;28;20040;-52
2023/10/12 07:24:53;;;;;;;35.08;8.98;;;16.80;94.10;;;;;;5048986;28;20021;-53
2023/10/12 07:27:22;;;;;;;39.42;10.48;;;16.80;94.20;;;;;;5042513;28;20033;-52
2023/10/12 07:30:00;;;;;;;35.20;9.35;;;16.80;94.20;;;;;;5075455;28;20033;-53
2023/10/12 07:32:38;;;;;;;35.33;9.02;;;16.90;94.20;;;;;;5033008;28;20033;-53
2023/10/12 07:35:12;;;;;;;30.50;9.18;;;16.80;94.20;;;;;;5060492;28;20032;-53
2023/10/12 07:37:42;;;;;;;30.53;9.40;;;16.80;94.30;;;;;;5071525;28;20025;-52
2023/10/12 07:40:18;;;;;;;34.78;8.45;;;16.80;94.30;;;;;;5068953;28;20028;-52
2023/10/12 07:42:46;;;;;;;28.42;9.48;;;16.80;94.30;;;;;;5033015;28;20037;-52
2023/10/12 07:45:15;;;;;;;36.45;9.70;;;16.90;94.70;;;;;;5041291;28;20046;-52
2023/10/12 07:47:42;;;;;;;44.53;10.10;;;16.90;94.30;;;;;;5052019;28;20487;-53
2023/10/12 07:50:12;;;;;;;49.72;10.00;;;16.90;94.30;;;;;;5031204;28;20035;-52
2023/10/12 07:55:07;;;;;;;74.57;13.90;;;17.00;94.30;;;;;;5043087;28;20025;-53
2023/10/12 07:57:36;;;;;;;64.50;12.80;;;16.90;94.20;;;;;;5065866;28;20059;-52
2023/10/12 08:00:29;;;;;;;56.47;12.07;;;17.00;94.30;;;;;;5040022;28;20055;-53
2023/10/12 08:05:24;;;;;;;48.65;12.23;;;17.00;94.30;;;;;;5067134;28;20048;-52
2023/10/12 08:08:08;;;;;;;56.45;11.95;;;17.00;94.30;;;;;;5041865;28;20028;-52
2023/10/12 08:13:39;;;;;;;55.90;11.10;;;17.10;94.30;;;;;;5062799;28;20556;-52
2023/10/12 08:16:03;;;;;;;62.50;12.32;;;17.10;94.30;;;;;;5062270;28;20045;-52
2023/10/12 08:24:09;;;;;;;50.22;11.20;;;17.10;94.60;;;;;;5068402;28;20021;-53
2023/10/12 08:29:17;;;;;;;72.50;12.80;;;17.20;94.70;;;;;;5047997;28;20037;-52
2023/10/12 08:31:43;;;;;;;66.53;12.88;;;17.20;94.70;;;;;;5064899;28;20086;-52
2023/10/12 08:34:13;;;;;;;71.00;13.98;;;17.20;94.80;;;;;;5072471;28;20116;-52
2023/10/12 08:39:37;;;;;;;75.78;11.98;;;17.30;94.70;;;;;;5079168;28;20059;-53
2023/10/12 08:44:51;;;;;;;61.28;13.45;;;17.30;94.70;;;;;;5066747;28;20027;-57
2023/10/12 08:47:26;;;;;;;79.22;15.10;;;17.30;94.80;;;;;;5060402;28;20029;-57
2023/10/12 08:52:27;;;;;;;71.38;13.65;;;17.40;94.80;;;;;;5066083;28;19919;-57
2023/10/12 08:54:58;;;;;;;65.93;12.68;;;17.40;94.80;;;;;;5066918;28;20040;-57
2023/10/12 08:57:38;;;;;;;61.00;12.52;;;17.40;94.60;;;;;;5052544;28;20052;-57
2023/10/12 09:02:52;;;;;;;67.38;12.63;;;17.50;94.50;;;;;;5081492;28;20029;-57
2023/10/12 09:05:25;;;;;;;69.60;12.98;;;17.50;94.50;;;;;;5065370;28;20029;-57
2023/10/12 09:11:02;;;;;;;62.58;13.55;;;17.60;94.50;;;;;;5051902;28;20051;-57
2023/10/12 09:13:28;;;;;;;72.13;14.27;;;17.60;94.40;;;;;;5072419;28;20032;-57
2023/10/12 09:15:55;;;;;;;82.95;15.07;;;17.70;94.40;;;;;;5074238;28;20115;-57
2023/10/12 09:18:24;;;;;;;54.42;13.27;;;17.70;94.30;;;;;;5059914;28;20028;-57
2023/10/12 09:31:39;;;;;;;75.35;13.32;;;17.80;94.00;;;;;;5048970;28;20024;-57
2023/10/12 09:36:55;;;;;;;75.40;14.65;;;17.90;93.70;;;;;;5066441;28;20112;-57
2023/10/12 09:39:28;;;;;;;70.32;14.45;;;17.90;93.70;;;;;;5057898;28;20112;-57
2023/10/12 09:41:59;;;;;;;85.57;15.23;;;17.90;93.60;;;;;;5058749;28;20128;-57
2023/10/12 09:44:26;;;;;;;81.13;14.30;;;18.00;93.60;;;;;;5052185;28;20016;-57
2023/10/12 09:46:55;;;;;;;76.30;15.18;;;18.00;93.50;;;;;;5066254;28;20029;-57
2023/10/12 09:49:22;;;;;;;84.65;16.27;;;18.00;93.30;;;;;;5051918;28;20029;-57
2023/10/12 09:51:50;;;;;;;81.95;15.57;;;18.10;93.10;;;;;;5064255;28;20080;-57
2023/10/12 09:54:27;;;;;;;80.80;16.13;;;18.20;93.00;;;;;;5070175;28;20103;-57
2023/10/12 09:56:57;;;;;;;77.20;16.83;;;18.20;93.00;;;;;;5049391;28;20025;-57
2023/10/12 09:59:23;;;;;;;87.28;16.77;;;18.20;93.00;;;;;;5041900;28;20033;-57
2023/10/12 10:01:49;;;;;;;71.25;16.10;;;18.30;92.80;;;;;;5037509;28;20036;-57
2023/10/12 10:07:41;;;;;;;94.10;17.47;;;18.30;92.60;;;;;;5053900;28;20025;-57
2023/10/12 10:09:54;;;;;;;100.00;16.35;;;18.30;92.50;;;;;;5064188;28;20444;-57
2023/10/12 10:12:22;;;;;;;100.28;17.08;;;18.40;92.30;;;;;;5097414;28;20029;-57
2023/10/12 10:14:53;;;;;;;84.63;16.20;;;18.40;92.20;;;;;;5078644;28;20024;-57
2023/10/12 10:17:35;;;;;;;75.65;14.55;;;18.50;91.80;;;;;;5056698;28;20076;-56
2023/10/12 10:20:45;;;;;;;82.30;14.90;;;18.50;91.40;;;;;;5064239;28;20496;-57
2023/10/12 10:22:57;;;;;;;90.00;16.77;;;18.50;91.40;;;;;;5064179;28;20024;-57
2023/10/12 10:25:27;;;;;;;86.88;15.98;;;18.60;91.10;;;;;;5050305;28;20033;-57
2023/10/12 10:27:56;;;;;;;79.00;15.80;;;18.60;91.00;;;;;;5051930;28;20045;-57
2023/10/12 10:30:36;;;;;;;88.43;15.75;;;18.60;91.00;;;;;;5051659;28;20040;-57
2023/10/12 10:33:17;;;;;;;81.78;14.30;;;18.70;90.80;;;;;;5045141;28;20041;-57
2023/10/12 10:36:24;;;;;;;91.45;15.15;;;18.70;90.40;;;;;;5047070;28;20041;-57
2023/10/12 10:41:22;;;;;;;81.40;14.27;;;18.80;89.20;;;;;;5054581;28;20079;-57
2023/10/12 10:43:51;;;;;;;81.40;15.02;;;18.90;89.20;;;;;;5066940;28;20053;-57
2023/10/12 10:46:17;;;;;;;97.93;14.85;;;19.00;89.00;;;;;;5056406;28;20044;-57
2023/10/12 10:48:49;;;;;;;90.93;15.05;;;19.00;88.30;;;;;;5057042;28;20025;-57
2023/10/12 10:51:41;;;;;;;103.70;14.32;;;19.10;87.50;;;;;;5071114;28;20047;-57
2023/10/12 10:54:12;;;;;;;71.07;13.18;;;19.10;87.10;;;;;;5052075;28;20029;-56
2023/10/12 10:56:47;;;;;;;92.20;12.98;;;19.10;86.80;;;;;;5066659;28;20041;-57
2023/10/12 10:59:13;;;;;;;80.80;12.18;;;19.20;86.60;;;;;;5050785;28;20033;-57
2023/10/12 11:01:46;;;;;;;105.65;14.77;;;19.20;86.40;;;;;;5064358;28;20063;-57
2023/10/12 11:04:18;;;;;;;57.58;11.30;;;19.20;86.00;;;;;;5080901;28;20579;-57
2023/10/12 11:06:53;;;;;;;68.57;10.40;;;19.30;85.50;;;;;;5059238;28;20033;-57
2023/10/12 11:09:22;;;;;;;;;;;19.30;85.30;;;;;;5057504;28;20029;-57
2023/10/12 11:11:58;;;;;;;73.80;11.25;;;19.40;84.70;;;;;;5080589;28;19972;-57
2023/10/12 11:14:24;;;;;;;52.10;10.27;;;19.40;84.60;;;;;;5047861;28;20025;-57
2023/10/12 11:16:51;;;;;;;75.40;12.82;;;19.40;84.60;;;;;;5052771;28;20037;-57
2023/10/12 11:19:19;;;;;;;58.72;10.45;;;19.40;84.40;;;;;;5067638;28;20033;-57
2023/10/12 11:21:53;;;;;;;119.07;13.60;;;19.50;84.10;;;;;;5067014;28;20036;-57
2023/10/12 11:24:23;;;;;;;67.55;11.25;;;19.60;84.40;;;;;;5065630;28;20056;-57
2023/10/12 11:26:57;;;;;;;56.03;9.10;;;19.60;83.20;;;;;;5065623;28;20029;-57
2023/10/12 11:29:24;;;;;;;107.53;32.13;;;19.60;83.10;;;;;;5064236;28;20033;-57
2023/10/12 11:32:08;;;;;;;80.15;18.27;;;19.70;82.40;;;;;;5066342;28;20037;-57
2023/10/12 11:34:59;;;;;;;60.97;15.55;;;19.80;82.10;;;;;;5066155;28;20052;-57
2023/10/12 11:37:27;;;;;;;72.90;16.40;;;19.80;81.60;;;;;;5049035;28;20037;-57
2023/10/12 11:39:54;;;;;;;64.50;16.02;;;19.90;81.20;;;;;;5075855;28;20035;-57
2023/10/12 11:42:20;;;;;;;56.47;13.23;;;19.90;80.90;;;;;;5079208;28;20024;-57
2023/10/12 11:44:46;;;;;;;35.30;11.85;;;20.00;80.00;;;;;;5073569;28;20445;-57
2023/10/12 11:47:24;;;;;;;48.05;11.70;;;20.10;79.70;;;;;;5078980;28;20028;-57
2023/10/12 11:49:55;;;;;;;50.30;11.15;;;20.10;79.30;;;;;;5069035;28;20029;-57
2023/10/12 11:52:32;;;;;;;46.50;10.95;;;20.20;79.00;;;;;;5050322;28;20033;-57
2023/10/12 11:55:07;;;;;;;60.28;12.70;;;20.20;78.70;;;;;;5065367;28;20025;-57
2023/10/12 11:57:41;;;;;;;28.27;10.65;;;20.30;78.80;;;;;;5066700;28;20214;-57
2023/10/12 12:00:29;;;;;;;43.05;10.48;;;20.30;78.50;;;;;;5045316;28;20096;-57
2023/10/12 12:02:57;;;;;;;37.35;9.68;;;20.40;78.30;;;;;;5066616;28;20025;-57
2023/10/12 12:05:36;;;;;;;41.45;9.32;;;20.40;77.90;;;;;;5052466;28;20029;-52
2023/10/12 12:08:13;;;;;;;28.77;8.35;;;20.50;77.60;;;;;;5060425;28;20086;-53
2023/10/12 12:10:46;;;;;;;27.38;8.02;;;20.60;77.00;;;;;;5067034;28;20033;-53
2023/10/12 12:13:20;;;;;;;28.15;7.72;;;20.60;76.40;;;;;;5065600;28;20078;-53
2023/10/12 12:15:46;;;;;;;36.17;7.43;;;20.70;75.70;;;;;;5065177;28;20044;-53
2023/10/12 12:18:18;;;;;;;44.70;7.07;;;20.80;75.40;;;;;;5075968;28;20029;-53
2023/10/12 12:20:44;;;;;;;39.15;6.72;;;20.80;74.80;;;;;;5064724;28;20084;-53
2023/10/12 12:23:11;;;;;;;36.50;5.85;;;20.90;74.70;;;;;;5048009;28;20052;-53
2023/10/12 12:25:40;;;;;;;31.83;6.60;;;20.90;74.50;;;;;;5056750;28;20021;-53
2023/10/12 12:28:13;;;;;;;25.92;5.45;;;21.00;74.50;;;;;;5048539;28;20579;-53
2023/10/12 12:30:46;;;;;;;19.63;5.55;;;21.00;74.50;;;;;;5065457;28;20052;-53
2023/10/12 12:33:18;;;;;;;19.02;5.00;;;21.00;74.20;;;;;;5062240;28;20097;-53
2023/10/12 12:35:47;;;;;;;29.60;5.70;;;21.00;74.20;;;;;;5046085;28;20105;-53
2023/10/12 12:38:43;;;;;;;26.63;6.07;;;21.00;74.10;;;;;;5048732;28;20044;-52
2023/10/12 12:41:18;;;;;;;;;;;21.10;74.10;;;;;;5033511;28;20029;-52
2023/10/12 12:43:47;;;;;;;19.55;5.75;;;21.10;74.00;;;;;;5066317;28;19987;-53
2023/10/12 12:46:12;;;;;;;23.45;5.68;;;21.10;73.90;;;;;;5066629;28;20032;-53
2023/10/12 12:48:38;;;;;;;31.85;6.53;;;21.10;74.00;;;;;;5048532;28;20024;-53
2023/10/12 12:51:10;;;;;;;26.42;5.63;;;21.20;73.70;;;;;;5065245;28;20029;-53
2023/10/12 12:53:35;;;;;;;25.17;4.97;;;21.20;73.50;;;;;;5074430;28;20028;-53
2023/10/12 12:56:02;;;;;;;40.83;6.72;;;21.30;73.60;;;;;;5062142;28;20032;-53
2023/10/12 12:58:28;;;;;;;42.00;7.00;;;21.30;73.30;;;;;;5031260;28;20083;-53
2023/10/12 13:00:53;;;;;;;38.42;7.28;;;21.40;73.20;;;;;;5047909;28;20035;-53
2023/10/12 13:03:19;;;;;;;37.15;7.25;;;21.40;73.10;;;;;;5043030;28;20115;-52
2023/10/12 13:05:46;;;;;;;72.70;9.63;;;21.40;73.90;;;;;;5071219;28;20075;-53
2023/10/12 13:08:12;;;;;;;49.03;8.80;;;21.50;73.20;;;;;;5078445;28;20148;-53
2023/10/12 13:10:38;;;;;;;41.17;8.50;;;21.50;73.10;;;;;;5068998;28;20033;-53
2023/10/12 13:13:04;;;;;;;49.20;8.18;;;21.60;73.00;;;;;;5055074;28;20033;-51
2023/10/12 13:15:31;;;;;;;47.72;8.85;;;21.60;72.90;;;;;;5040530;28;20090;-53
2023/10/12 13:17:58;;;;;;;44.78;7.97;;;21.70;72.70;;;;;;5084526;28;20043;-53
2023/10/12 13:20:29;;;;;;;63.15;9.57;;;21.70;72.80;;;;;;5036820;28;20040;-53
2023/10/12 13:22:58;;;;;;;48.53;9.32;;;21.70;73.00;;;;;;5061526;28;20029;-53
2023/10/12 13:25:26;;;;;;;56.85;9.05;;;21.80;72.80;;;;;;5058416;28;20084;-53
2023/10/12 13:27:51;;;;;;;45.17;9.05;;;21.80;72.60;;;;;;5070943;28;20032;-53
2023/10/12 13:30:17;;;;;;;53.33;9.23;;;21.80;72.40;;;;;;5062254;28;20020;-53
2023/10/12 13:32:43;;;;;;;57.13;10.68;;;21.90;72.30;;;;;;5051767;28;20043;-52
2023/10/12 13:35:18;;;;;;;53.15;9.00;;;21.90;72.40;;;;;;5078890;28;20063;-53
2023/10/12 13:37:51;;;;;;;52.33;10.43;;;22.00;72.60;;;;;;5052318;28;20108;-53
2023/10/12 13:40:16;;;;;;;51.22;9.85;;;22.00;72.30;;;;;;5049362;28;20294;-53
2023/10/12 13:42:45;;;;;;;38.97;9.18;;;22.00;72.40;;;;;;5064878;28;20025;-53
2023/10/12 13:45:18;;;;;;;66.28;12.50;;;22.00;72.70;;;;;;5055778;28;20100;-53
2023/10/12 13:47:46;;;;;;;100.80;13.02;;;22.10;72.30;;;;;;5050096;28;20044;-53
2023/10/12 13:50:12;;;;;;;73.00;11.82;;;22.10;72.60;;;;;;5035591;28;20571;-53
2023/10/12 13:52:38;;;;;;;51.65;10.15;;;22.20;72.60;;;;;;5055634;28;20060;-53
2023/10/12 13:55:11;;;;;;;54.88;10.15;;;22.20;72.30;;;;;;5040588;28;20074;-53
2023/10/12 13:57:57;;;;;;;113.70;15.85;;;22.20;71.80;;;;;;5061338;28;20048;-53
2023/10/12 14:00:25;;;;;;;77.45;12.15;;;22.30;72.10;;;;;;5067425;28;20033;-53
2023/10/12 14:02:54;;;;;;;95.72;11.15;;;22.30;72.00;;;;;;5049384;28;20044;-53
2023/10/12 14:05:24;;;;;;;63.72;9.57;;;22.30;71.30;;;;;;5019298;28;20029;-53
2023/10/12 14:07:54;;;;;;;57.13;10.07;;;22.40;71.10;;;;;;5069965;28;20083;-53
2023/10/12 14:10:23;;;;;;;68.47;11.55;;;22.40;71.10;;;;;;5068082;28;20054;-53
2023/10/12 14:12:59;;;;;;;73.85;11.85;;;22.40;71.50;;;;;;5053199;28;20032;-53
2023/10/12 14:15:28;;;;;;;59.92;11.95;;;22.50;71.70;;;;;;5070860;28;20025;-53
2023/10/12 14:17:56;;;;;;;74.38;11.90;;;22.50;71.30;;;;;;5048204;28;20037;-53
2023/10/12 14:20:28;;;;;;;81.90;12.85;;;22.50;71.30;;;;;;5063434;28;20067;-53
2023/10/12 14:22:57;;;;;;;82.97;12.55;;;22.60;71.20;;;;;;5065258;28;20056;-53
2023/10/12 14:25:27;;;;;;;76.55;12.40;;;22.60;71.20;;;;;;5059922;28;20039;-53
2023/10/12 14:27:53;;;;;;;95.50;12.23;;;22.70;71.00;;;;;;5080192;28;20473;-53
2023/10/12 14:30:25;;;;;;;90.93;14.05;;;22.70;70.80;;;;;;5066138;28;20024;-52
2023/10/12 14:32:50;;;;;;;101.78;14.98;;;22.70;71.30;;;;;;5046394;28;20033;-53
2023/10/12 14:35:18;;;;;;;116.13;14.07;;;22.80;70.80;;;;;;5040966;28;20373;-53
2023/10/12 14:37:43;;;;;;;113.40;14.95;;;22.80;70.80;;;;;;5033490;28;20480;-53
2023/10/12 14:40:11;;;;;;;76.28;13.73;;;22.80;70.70;;;;;;5063896;28;20095;-53
2023/10/12 14:42:40;;;;;;;112.88;14.88;;;22.90;70.80;;;;;;5063704;28;20199;-53
2023/10/12 14:45:09;;;;;;;125.72;17.80;;;22.90;71.00;;;;;;5068432;28;20036;-53
2023/10/12 14:47:35;;;;;;;107.38;16.48;;;22.90;70.80;;;;;;5031564;28;20087;-53
2023/10/12 14:50:05;;;;;;;86.32;14.48;;;22.90;70.70;;;;;;5057049;28;20029;-53
2023/10/12 14:52:38;;;;;;;97.90;16.17;;;22.90;70.60;;;;;;5067128;28;20071;-53
2023/10/12 14:55:10;;;;;;;92.25;14.50;;;23.00;71.30;;;;;;5067702;28;20048;-53
2023/10/12 14:57:39;;;;;;;115.75;14.38;;;23.00;70.60;;;;;;5034208;28;20026;-53
2023/10/12 15:00:10;;;;;;;106.68;15.57;;;23.00;70.50;;;;;;5042833;28;20048;-53
2023/10/12 15:02:36;;;;;;;93.38;12.38;;;23.00;70.70;;;;;;5064798;28;20029;-53
2023/10/12 15:05:05;;;;;;;103.10;13.88;;;23.10;70.70;;;;;;5038616;28;20037;-53
2023/10/12 15:07:34;;;;;;;89.95;13.30;;;23.10;70.50;;;;;;5063058;28;20029;-53